createdAt,value
2022-10-20T00:00:16.379Z,99519.00
2022-10-20T00:02:46.286Z,99516.00
2022-10-20T00:05:16.167Z,99519.00
2022-10-20T00:07:46.268Z,99523.00
2022-10-20T00:10:17.492Z,99523.00
2022-10-20T00:12:47.353Z,99526.00
2022-10-20T00:15:20.066Z,99516.00
2022-10-20T00:17:49.910Z,99509.00
2022-10-20T00:20:19.948Z,99512.00
2022-10-20T00:22:49.854Z,99507.00
2022-10-20T00:25:19.938Z,99501.00
2022-10-20T00:27:49.817Z,99502.00
2022-10-20T00:30:23.779Z,99493.00
2022-10-20T00:32:55.489Z,99487.00
2022-10-20T00:35:25.332Z,99492.00
2022-10-20T00:37:55.215Z,99488.00
2022-10-20T00:40:25.194Z,99481.00
2022-10-20T00:42:55.033Z,99481.00
2022-10-20T00:45:27.448Z,99482.00
2022-10-20T00:47:59.310Z,99482.00
2022-10-20T00:50:31.144Z,99483.00
2022-10-20T00:53:02.021Z,99476.00
2022-10-20T00:55:33.226Z,99476.00
2022-10-20T00:58:04.281Z,99469.00
2022-10-20T01:00:36.888Z,99454.00
2022-10-20T01:03:07.329Z,99458.00
2022-10-20T01:05:37.274Z,99459.00
2022-10-20T01:08:07.655Z,99456.00
2022-10-20T01:10:41.568Z,99457.00
2022-10-20T01:13:16.284Z,99461.00
2022-10-20T01:15:53.959Z,99461.00
2022-10-20T01:18:26.667Z,99452.00
2022-10-20T01:21:07.517Z,99459.00
2022-10-20T01:23:58.004Z,99461.00
2022-10-20T01:27:09.771Z,99468.00
2022-10-20T01:29:45.937Z,99463.00
2022-10-20T01:32:20.851Z,99464.00
2022-10-20T01:34:54.472Z,99465.00
2022-10-20T01:37:40.708Z,99459.00
2022-10-20T01:40:23.721Z,99460.00
2022-10-20T01:42:55.691Z,99463.00
2022-10-20T01:45:31.319Z,99456.00
2022-10-20T01:48:02.255Z,99462.00
2022-10-20T01:50:32.713Z,99455.00
2022-10-20T01:53:03.214Z,99453.00
2022-10-20T01:55:33.863Z,99454.00
2022-10-20T01:58:18.572Z,99454.00
2022-10-20T02:00:51.738Z,99457.00
2022-10-20T02:03:30.428Z,99456.00
2022-10-20T02:06:12.193Z,99460.00
2022-10-20T02:08:46.824Z,99462.00
2022-10-20T02:11:24.094Z,99461.00
2022-10-20T02:13:55.692Z,99454.00
2022-10-20T02:16:31.587Z,99466.00
2022-10-20T02:19:02.359Z,99467.00
2022-10-20T02:21:32.212Z,99468.00
2022-10-20T02:24:04.341Z,99467.00
2022-10-20T02:26:35.530Z,99468.00
2022-10-20T02:29:09.450Z,99474.00
2022-10-20T02:31:41.974Z,99468.00
2022-10-20T02:34:11.952Z,99477.00
2022-10-20T02:36:43.810Z,99465.00
2022-10-20T02:39:14.223Z,99466.00
2022-10-20T02:41:44.075Z,99466.00
2022-10-20T02:44:13.901Z,99468.00
2022-10-20T02:46:46.396Z,99469.00
2022-10-20T02:49:16.230Z,99458.00
2022-10-20T02:51:46.096Z,99462.00
2022-10-20T02:54:16.035Z,99449.00
2022-10-20T02:56:45.890Z,99453.00
2022-10-20T02:59:17.270Z,99452.00
2022-10-20T03:01:51.372Z,99453.00
2022-10-20T03:04:21.375Z,99447.00
2022-10-20T03:06:51.316Z,99454.00
2022-10-20T03:09:21.144Z,99449.00
2022-10-20T03:11:51.006Z,99458.00
2022-10-20T03:14:20.869Z,99447.00
2022-10-20T03:16:53.329Z,99449.00
2022-10-20T03:19:23.207Z,99457.00
2022-10-20T03:21:53.034Z,99451.00
2022-10-20T03:24:22.866Z,99451.00
2022-10-20T03:26:52.686Z,99445.00
2022-10-20T03:29:22.609Z,99450.00
2022-10-20T03:31:55.056Z,99453.00
2022-10-20T03:34:25.056Z,99455.00
2022-10-20T03:36:54.901Z,99448.00
2022-10-20T03:39:25.054Z,99449.00
2022-10-20T03:41:54.865Z,99443.00
2022-10-20T03:44:24.691Z,99452.00
2022-10-20T03:46:57.130Z,99453.00
2022-10-20T03:49:27.290Z,99439.00
2022-10-20T03:51:57.294Z,99450.00
2022-10-20T03:54:27.359Z,99448.00
2022-10-20T03:56:57.206Z,99445.00
2022-10-20T03:59:29.613Z,99437.00
2022-10-20T04:02:03.083Z,99438.00
2022-10-20T04:04:33.005Z,99437.00
2022-10-20T04:07:02.850Z,99435.00
2022-10-20T04:09:32.963Z,99443.00
2022-10-20T04:12:02.854Z,99434.00
2022-10-20T04:14:32.862Z,99432.00
2022-10-20T04:17:05.297Z,99422.00
2022-10-20T04:19:35.451Z,99420.00
2022-10-20T04:22:05.298Z,99424.00
2022-10-20T04:24:35.204Z,99427.00
2022-10-20T04:27:05.047Z,99416.00
2022-10-20T04:29:34.996Z,99422.00
2022-10-20T04:32:07.938Z,99422.00
2022-10-20T04:34:37.863Z,99428.00
2022-10-20T04:37:07.941Z,99421.00
2022-10-20T04:39:37.795Z,99408.00
2022-10-20T04:42:07.710Z,99416.00
2022-10-20T04:44:37.582Z,99420.00
2022-10-20T04:47:10.042Z,99407.00
2022-10-20T04:49:39.866Z,99405.00
2022-10-20T04:52:09.858Z,99406.00
2022-10-20T04:54:40.146Z,99402.00
2022-10-20T04:57:11.052Z,99407.00
2022-10-20T04:59:40.947Z,99402.00
2022-10-20T05:02:13.875Z,99398.00
2022-10-20T05:04:43.777Z,99397.00
2022-10-20T05:07:13.690Z,99395.00
2022-10-20T05:09:43.516Z,99385.00
2022-10-20T05:15:03.109Z,99394.00
2022-10-20T05:17:35.550Z,99392.00
2022-10-20T05:20:05.387Z,99393.00
2022-10-20T05:22:35.862Z,99390.00
2022-10-20T05:25:31.253Z,99401.00
2022-10-20T05:27:55.970Z,99390.00
2022-10-20T05:30:25.833Z,99398.00
2022-10-20T05:32:58.313Z,99395.00
2022-10-20T05:35:28.241Z,99386.00
2022-10-20T05:37:58.094Z,99399.00
2022-10-20T05:40:28.080Z,99393.00
2022-10-20T05:42:57.919Z,99396.00
2022-10-20T05:45:27.849Z,99398.00
2022-10-20T05:48:00.293Z,99402.00
2022-10-20T05:50:30.220Z,99405.00
2022-10-20T05:53:00.034Z,99409.00
2022-10-20T05:55:30.031Z,99408.00
2022-10-20T05:57:59.912Z,99403.00
2022-10-20T06:00:41.409Z,99413.00
2022-10-20T06:03:16.168Z,99416.00
2022-10-20T06:05:48.850Z,99421.00
2022-10-20T06:08:18.674Z,99419.00
2022-10-20T06:10:48.525Z,99413.00
2022-10-20T06:13:18.383Z,99416.00
2022-10-20T06:15:49.300Z,99418.00
2022-10-20T06:18:21.788Z,99423.00
2022-10-20T06:20:51.635Z,99422.00
2022-10-20T06:23:21.477Z,99431.00
2022-10-20T06:25:51.551Z,99434.00
2022-10-20T06:28:21.398Z,99424.00
2022-10-20T06:30:51.326Z,99432.00
2022-10-20T06:33:24.108Z,99437.00
2022-10-20T06:35:53.981Z,99430.00
2022-10-20T06:38:23.841Z,99450.00
2022-10-20T06:40:53.713Z,99454.00
2022-10-20T06:43:23.628Z,99458.00
2022-10-20T06:45:59.893Z,99463.00
2022-10-20T06:48:32.890Z,99456.00
2022-10-20T06:51:03.838Z,99454.00
2022-10-20T06:53:34.279Z,99445.00
2022-10-20T06:56:06.455Z,99449.00
2022-10-20T06:58:37.355Z,99440.00
2022-10-20T07:01:11.007Z,99438.00
2022-10-20T07:03:44.025Z,99437.00
2022-10-20T07:06:17.263Z,99433.00
2022-10-20T07:08:47.337Z,99442.00
2022-10-20T07:11:19.408Z,99437.00
2022-10-20T07:13:49.662Z,99439.00
2022-10-20T07:16:21.198Z,99434.00
2022-10-20T07:18:53.808Z,99437.00
2022-10-20T07:21:36.727Z,99447.00
2022-10-20T07:24:10.102Z,99445.00
2022-10-20T07:26:42.232Z,99447.00
2022-10-20T07:29:14.778Z,99442.00
2022-10-20T07:31:46.477Z,99450.00
2022-10-20T07:34:27.658Z,99452.00
2022-10-20T07:36:58.524Z,99463.00
2022-10-20T07:39:28.850Z,99449.00
2022-10-20T07:41:58.704Z,99455.00
2022-10-20T07:44:28.544Z,99450.00
2022-10-20T07:46:58.426Z,99447.00
2022-10-20T07:49:46.145Z,99452.00
2022-10-20T07:52:16.792Z,99447.00
2022-10-20T07:54:46.805Z,99437.00
2022-10-20T07:57:16.696Z,99426.00
2022-10-20T07:59:46.551Z,99428.00
2022-10-20T08:02:16.577Z,99428.00
2022-10-20T08:04:49.072Z,99426.00
2022-10-20T08:07:19.296Z,99419.00
2022-10-20T08:09:49.131Z,99429.00
2022-10-20T08:12:18.970Z,99426.00
2022-10-20T08:14:48.860Z,99408.00
2022-10-20T08:17:18.710Z,99429.00
2022-10-20T08:22:40.582Z,99420.00
2022-10-20T08:25:12.454Z,99420.00
2022-10-20T08:27:42.288Z,99423.00
2022-10-20T08:30:23.393Z,99429.00
2022-10-20T08:32:54.511Z,99415.00
2022-10-20T08:35:27.192Z,99426.00
2022-10-20T08:37:57.123Z,99416.00
2022-10-20T08:40:29.027Z,99415.00
2022-10-20T08:42:59.180Z,99417.00
2022-10-20T08:45:32.669Z,99410.00
2022-10-20T08:48:05.301Z,99412.00
2022-10-20T08:50:37.998Z,99416.00
2022-10-20T08:53:07.869Z,99419.00
2022-10-20T08:55:37.732Z,99414.00
2022-10-20T08:58:09.088Z,99414.00
2022-10-20T09:00:40.249Z,99408.00
2022-10-20T09:03:17.491Z,99405.00
2022-10-20T09:05:53.377Z,99405.00
2022-10-20T09:08:24.323Z,99412.00
2022-10-20T09:10:55.646Z,99409.00
2022-10-20T09:13:27.829Z,99414.00
2022-10-20T09:16:03.810Z,99412.00
2022-10-20T09:18:34.197Z,99405.00
2022-10-20T09:21:09.316Z,99420.00
2022-10-20T09:23:42.718Z,99413.00
2022-10-20T09:26:30.566Z,99414.00
2022-10-20T09:29:14.173Z,99405.00
2022-10-20T09:31:46.528Z,99403.00
2022-10-20T09:34:32.307Z,99393.00
2022-10-20T09:37:07.468Z,99395.00
2022-10-20T09:39:44.984Z,99395.00
2022-10-20T09:42:17.365Z,99388.00
2022-10-20T09:44:51.475Z,99390.00
2022-10-20T09:47:22.388Z,99389.00
2022-10-20T09:50:00.007Z,99388.00
2022-10-20T09:52:44.590Z,99379.00
2022-10-20T09:55:29.514Z,99380.00
2022-10-20T09:58:02.480Z,99381.00
2022-10-20T10:00:37.644Z,99378.00
2022-10-20T10:03:14.575Z,99375.00
2022-10-20T10:05:44.509Z,99382.00
2022-10-20T10:08:19.817Z,99373.00
2022-10-20T10:11:01.040Z,99368.00
2022-10-20T10:13:33.472Z,99373.00
2022-10-20T10:16:09.010Z,99373.00
2022-10-20T10:18:39.599Z,99369.00
2022-10-20T10:21:11.810Z,99370.00
2022-10-20T10:23:56.662Z,99359.00
2022-10-20T10:26:47.045Z,99353.00
2022-10-20T10:29:26.994Z,99349.00
2022-10-20T10:32:02.436Z,99338.00
2022-10-20T10:34:41.080Z,99335.00
2022-10-20T10:37:15.287Z,99336.00
2022-10-20T10:39:47.843Z,99322.00
2022-10-20T10:42:38.134Z,99331.00
2022-10-20T10:45:19.539Z,99335.00
2022-10-20T10:48:04.553Z,99343.00
2022-10-20T10:50:39.004Z,99330.00
2022-10-20T10:53:21.155Z,99322.00
2022-10-20T10:56:00.282Z,99310.00
2022-10-20T10:58:38.797Z,99308.00
2022-10-20T11:01:24.921Z,99309.00
2022-10-20T11:04:10.955Z,99310.00
2022-10-20T11:06:45.070Z,99295.00
2022-10-20T11:09:26.675Z,99304.00
2022-10-20T11:12:14.320Z,99294.00
2022-10-20T11:14:50.266Z,99290.00
2022-10-20T11:17:32.110Z,99284.00
2022-10-20T11:20:12.382Z,99291.00
2022-10-20T11:22:50.528Z,99275.00
2022-10-20T11:25:30.314Z,99275.00
2022-10-20T11:28:03.310Z,99281.00
2022-10-20T11:30:33.573Z,99274.00
2022-10-20T11:33:09.166Z,99259.00
2022-10-20T11:35:42.615Z,99269.00
2022-10-20T11:38:20.343Z,99250.00
2022-10-20T11:40:55.219Z,99236.00
2022-10-20T11:43:32.456Z,99239.00
2022-10-20T11:46:07.700Z,99238.00
2022-10-20T11:48:41.940Z,99236.00
2022-10-20T11:51:28.321Z,99227.00
2022-10-20T11:54:13.270Z,99215.00
2022-10-20T11:56:59.605Z,99206.00
2022-10-20T11:59:59.302Z,99207.00
2022-10-20T12:02:52.850Z,99201.00
2022-10-20T12:05:58.560Z,99193.00
2022-10-20T12:08:48.343Z,99200.00
2022-10-20T12:11:21.563Z,99195.00
2022-10-20T12:13:57.649Z,99194.00
2022-10-20T12:16:58.434Z,99183.00
2022-10-20T12:19:32.385Z,99178.00
2022-10-20T12:22:04.112Z,99184.00
2022-10-20T12:24:36.784Z,99187.00
2022-10-20T12:27:21.610Z,99184.00
2022-10-20T12:30:23.942Z,99177.00
2022-10-20T12:33:12.553Z,99180.00
2022-10-20T12:36:03.581Z,99180.00
2022-10-20T12:38:34.007Z,99173.00
2022-10-20T12:41:04.535Z,99171.00
2022-10-20T12:43:37.736Z,99162.00
2022-10-20T12:46:13.321Z,99170.00
2022-10-20T12:48:47.741Z,99159.00
2022-10-20T12:51:28.783Z,99166.00
2022-10-20T12:54:02.436Z,99162.00
2022-10-20T12:56:38.543Z,99165.00
2022-10-20T12:59:46.774Z,99170.00
2022-10-20T13:02:33.904Z,99157.00
2022-10-20T13:05:06.474Z,99161.00
2022-10-20T13:08:12.164Z,99159.00
2022-10-20T13:10:42.090Z,99155.00
2022-10-20T13:13:50.799Z,99148.00
2022-10-20T13:16:24.411Z,99150.00
2022-10-20T13:18:55.188Z,99147.00
2022-10-20T13:21:34.592Z,99142.00
2022-10-20T13:24:16.393Z,99143.00
2022-10-20T13:26:54.382Z,99153.00
2022-10-20T13:29:28.516Z,99142.00
2022-10-20T13:34:43.916Z,99138.00
2022-10-20T13:37:23.924Z,99150.00
2022-10-20T13:40:05.168Z,99143.00
2022-10-20T13:42:44.398Z,99146.00
2022-10-20T13:45:15.914Z,99143.00
2022-10-20T13:47:59.859Z,99137.00
2022-10-20T13:50:32.739Z,99138.00
2022-10-20T13:53:05.823Z,99134.00
2022-10-20T13:55:57.344Z,99133.00
2022-10-20T13:58:27.876Z,99127.00
2022-10-20T14:01:08.548Z,99130.00
2022-10-20T14:03:45.216Z,99133.00
2022-10-20T14:06:36.874Z,99128.00
2022-10-20T14:09:17.348Z,99127.00
2022-10-20T14:11:53.503Z,99123.00
2022-10-20T14:14:25.982Z,99118.00
2022-10-20T14:16:58.095Z,99123.00
2022-10-20T14:19:29.096Z,99129.00
2022-10-20T14:22:00.361Z,99124.00
2022-10-20T14:24:33.660Z,99119.00
2022-10-20T14:27:07.723Z,99120.00
2022-10-20T14:29:41.237Z,99111.00
2022-10-20T14:32:13.641Z,99120.00
2022-10-20T14:34:57.512Z,99110.00
2022-10-20T14:37:32.370Z,99115.00
2022-10-20T14:40:03.631Z,99118.00
2022-10-20T14:42:36.773Z,99119.00
2022-10-20T14:45:07.549Z,99120.00
2022-10-20T14:47:41.942Z,99098.00
2022-10-20T14:50:23.563Z,99107.00
2022-10-20T14:52:54.327Z,99105.00
2022-10-20T14:55:33.777Z,99093.00
2022-10-20T14:58:06.589Z,99090.00
2022-10-20T15:00:38.075Z,99085.00
2022-10-20T15:03:10.094Z,99082.00
2022-10-20T15:05:44.401Z,99092.00
2022-10-20T15:08:28.566Z,99086.00
2022-10-20T15:10:58.611Z,99079.00
2022-10-20T15:13:33.602Z,99085.00
2022-10-20T15:16:05.084Z,99079.00
2022-10-20T15:18:39.342Z,99082.00
2022-10-20T15:21:12.025Z,99067.00
2022-10-20T15:23:41.883Z,99069.00
2022-10-20T15:26:14.043Z,99065.00
2022-10-20T15:28:48.267Z,99065.00
2022-10-20T15:31:23.587Z,99055.00
2022-10-20T15:33:54.268Z,99067.00
2022-10-20T15:36:28.860Z,99074.00
2022-10-20T15:38:59.394Z,99073.00
2022-10-20T15:41:31.351Z,99066.00
2022-10-20T15:44:06.691Z,99064.00
2022-10-20T15:46:36.514Z,99062.00
2022-10-20T15:49:06.425Z,99072.00
2022-10-20T15:51:38.456Z,99066.00
2022-10-20T15:54:08.500Z,99067.00
2022-10-20T15:56:38.362Z,99076.00
2022-10-20T15:59:11.002Z,99078.00
2022-10-20T16:01:41.520Z,99077.00
2022-10-20T16:04:19.700Z,99064.00
2022-10-20T16:06:52.448Z,99059.00
2022-10-20T16:09:23.056Z,99055.00
2022-10-20T16:11:53.339Z,99049.00
2022-10-20T16:14:25.875Z,99044.00
2022-10-20T16:17:00.101Z,99047.00
2022-10-20T16:19:30.086Z,99053.00
2022-10-20T16:21:59.960Z,99044.00
2022-10-20T16:24:29.915Z,99039.00
2022-10-20T16:26:59.950Z,99035.00
2022-10-20T16:29:32.582Z,99038.00
2022-10-20T16:32:02.792Z,99036.00
2022-10-20T16:34:32.943Z,99034.00
2022-10-20T16:37:02.919Z,99027.00
2022-10-20T16:39:32.792Z,99032.00
2022-10-20T16:42:02.646Z,99036.00
2022-10-20T16:44:35.240Z,99038.00
2022-10-20T16:47:05.103Z,99040.00
2022-10-20T16:49:35.158Z,99044.00
2022-10-20T16:52:05.083Z,99042.00
2022-10-20T16:54:35.022Z,99034.00
2022-10-20T16:57:07.154Z,99041.00
2022-10-20T16:59:40.145Z,99035.00
2022-10-20T17:02:10.903Z,99029.00
2022-10-20T17:04:41.575Z,99035.00
2022-10-20T17:07:11.608Z,99033.00
2022-10-20T17:09:41.478Z,99031.00
2022-10-20T17:12:11.659Z,99027.00
2022-10-20T17:14:44.402Z,99025.00
2022-10-20T17:17:14.560Z,99020.00
2022-10-20T17:19:45.164Z,99027.00
2022-10-20T17:22:15.150Z,99031.00
2022-10-20T17:24:45.171Z,99031.00
2022-10-20T17:27:15.057Z,99029.00
2022-10-20T17:29:47.767Z,99024.00
2022-10-20T17:32:18.465Z,99023.00
2022-10-20T17:34:48.736Z,99015.00
2022-10-20T17:37:19.061Z,99013.00
2022-10-20T17:39:49.213Z,99004.00
2022-10-20T17:42:19.275Z,99003.00
2022-10-20T17:44:52.020Z,98992.00
2022-10-20T17:47:23.112Z,98983.00
2022-10-20T17:49:53.382Z,98978.00
2022-10-20T17:52:23.645Z,98978.00
2022-10-20T17:54:53.703Z,98979.00
2022-10-20T17:57:23.781Z,98983.00
2022-10-20T17:59:59.364Z,98972.00
2022-10-20T18:02:36.047Z,98963.00
2022-10-20T18:05:06.554Z,98981.00
2022-10-20T18:07:36.696Z,98973.00
2022-10-20T18:10:07.603Z,98969.00
2022-10-20T18:12:37.806Z,98971.00
2022-10-20T18:15:11.454Z,98961.00
2022-10-20T18:17:41.352Z,98964.00
2022-10-20T18:20:13.010Z,98960.00
2022-10-20T18:22:43.140Z,98959.00
2022-10-20T18:25:13.095Z,98949.00
2022-10-20T18:27:42.986Z,98949.00
2022-10-20T18:30:15.964Z,98950.00
2022-10-20T18:32:45.851Z,98946.00
2022-10-20T18:35:15.977Z,98934.00
2022-10-20T18:37:45.853Z,98937.00
2022-10-20T18:40:15.899Z,98935.00
2022-10-20T18:42:45.767Z,98941.00
2022-10-20T18:45:21.312Z,98941.00
2022-10-20T18:47:53.656Z,98942.00
2022-10-20T18:50:23.803Z,98937.00
2022-10-20T18:52:53.729Z,98933.00
2022-10-20T18:55:23.759Z,98936.00
2022-10-20T18:57:53.669Z,98933.00
2022-10-20T19:00:26.147Z,98924.00
2022-10-20T19:02:58.060Z,98932.00
2022-10-20T19:05:30.767Z,98922.00
2022-10-20T19:08:00.738Z,98913.00
2022-10-20T19:10:30.878Z,98921.00
2022-10-20T19:13:00.737Z,98915.00
2022-10-20T19:15:33.190Z,98916.00
2022-10-20T19:18:03.040Z,98911.00
2022-10-20T19:20:33.021Z,98916.00
2022-10-20T19:23:02.884Z,98898.00
2022-10-20T19:25:33.475Z,98905.00
2022-10-20T19:28:03.504Z,98916.00
2022-10-20T19:30:40.934Z,98912.00
2022-10-20T19:33:10.799Z,98913.00
2022-10-20T19:35:40.634Z,98910.00
2022-10-20T19:38:10.514Z,98914.00
2022-10-20T19:40:41.406Z,98899.00
2022-10-20T19:43:11.315Z,98900.00
2022-10-20T19:45:47.716Z,98892.00
2022-10-20T19:48:21.176Z,98885.00
2022-10-20T19:50:51.037Z,98882.00
2022-10-20T19:53:21.416Z,98884.00
2022-10-20T19:55:51.775Z,98879.00
2022-10-20T19:58:22.464Z,98890.00
2022-10-20T20:00:56.094Z,98889.00
2022-10-20T20:03:25.949Z,98894.00
2022-10-20T20:06:00.564Z,98885.00
2022-10-20T20:08:30.481Z,98876.00
2022-10-20T20:11:01.429Z,98878.00
2022-10-20T20:13:31.288Z,98875.00
2022-10-20T20:16:07.566Z,98882.00
2022-10-20T20:18:39.454Z,98874.00
2022-10-20T20:21:09.396Z,98863.00
2022-10-20T20:23:47.520Z,98873.00
2022-10-20T20:26:24.599Z,98870.00
2022-10-20T20:28:55.776Z,98866.00
2022-10-20T20:31:28.775Z,98865.00
2022-10-20T20:33:59.539Z,98874.00
2022-10-20T20:36:30.800Z,98881.00
2022-10-20T20:39:01.583Z,98861.00
2022-10-20T20:41:32.921Z,98860.00
2022-10-20T20:44:07.712Z,98848.00
2022-10-20T20:46:40.889Z,98865.00
2022-10-20T20:49:10.761Z,98843.00
2022-10-20T20:51:40.664Z,98843.00
2022-10-20T20:54:11.483Z,98844.00
2022-10-20T20:56:41.378Z,98836.00
2022-10-20T20:59:11.255Z,98827.00
2022-10-20T21:01:45.244Z,98835.00
2022-10-20T21:04:16.030Z,98823.00
2022-10-20T21:07:02.737Z,98827.00
2022-10-20T21:09:33.338Z,98832.00
2022-10-20T21:12:03.360Z,98822.00
2022-10-20T21:14:34.898Z,98840.00
2022-10-20T21:17:07.374Z,98826.00
2022-10-20T21:19:38.169Z,98810.00
2022-10-20T21:22:08.022Z,98816.00
2022-10-20T21:24:37.883Z,98817.00
2022-10-20T21:27:07.824Z,98813.00
2022-10-20T21:29:37.648Z,98828.00
2022-10-20T21:32:10.157Z,98833.00
2022-10-20T21:34:39.982Z,98815.00
2022-10-20T21:37:10.044Z,98808.00
2022-10-20T21:39:39.946Z,98825.00
2022-10-20T21:42:09.744Z,98816.00
2022-10-20T21:44:39.611Z,98812.00
2022-10-20T21:47:12.122Z,98804.00
2022-10-20T21:49:41.977Z,98805.00
2022-10-20T21:52:11.832Z,98812.00
2022-10-20T21:54:41.676Z,98810.00
2022-10-20T21:57:11.507Z,98802.00
2022-10-20T21:59:41.344Z,98802.00
2022-10-20T22:02:15.346Z,98795.00
2022-10-20T22:04:45.214Z,98798.00
2022-10-20T22:07:15.132Z,98793.00
2022-10-20T22:09:44.977Z,98798.00
2022-10-20T22:12:14.828Z,98804.00
2022-10-20T22:14:46.520Z,98794.00
2022-10-20T22:17:21.319Z,98795.00
2022-10-20T22:19:51.169Z,98779.00
2022-10-20T22:22:20.986Z,98793.00
2022-10-20T22:24:50.985Z,98762.00
2022-10-20T22:27:31.643Z,98771.00
2022-10-20T22:30:12.412Z,98766.00
2022-10-20T22:32:44.848Z,98777.00
2022-10-20T22:35:14.711Z,98765.00
2022-10-20T22:37:44.500Z,98757.00
2022-10-20T22:40:15.387Z,98764.00
2022-10-20T22:42:45.229Z,98762.00
2022-10-20T22:45:15.858Z,98751.00
2022-10-20T22:47:48.298Z,98758.00
2022-10-20T22:50:18.315Z,98759.00
2022-10-20T22:52:48.208Z,98762.00
2022-10-20T22:55:18.164Z,98754.00
2022-10-20T22:57:49.973Z,98749.00
2022-10-20T23:00:21.112Z,98767.00
2022-10-20T23:02:53.562Z,98760.00
2022-10-20T23:05:23.433Z,98768.00
2022-10-20T23:07:53.297Z,98769.00
2022-10-20T23:10:23.127Z,98769.00
2022-10-20T23:12:53.021Z,98757.00
2022-10-20T23:15:22.863Z,98751.00
2022-10-20T23:17:55.308Z,98746.00
2022-10-20T23:20:25.180Z,98742.00
2022-10-20T23:22:55.046Z,98735.00
2022-10-20T23:25:24.958Z,98745.00
2022-10-20T23:27:56.507Z,98742.00
2022-10-20T23:30:26.409Z,98736.00
2022-10-20T23:32:58.827Z,98728.00
2022-10-20T23:35:28.725Z,98728.00
2022-10-20T23:37:58.528Z,98724.00
2022-10-20T23:40:28.450Z,98749.00
2022-10-20T23:42:58.344Z,98750.00
2022-10-20T23:45:28.237Z,98750.00
2022-10-20T23:48:00.669Z,98743.00
2022-10-20T23:50:30.532Z,98723.00
2022-10-20T23:53:00.377Z,98734.00
2022-10-20T23:55:30.243Z,98743.00
2022-10-20T23:58:00.130Z,98744.00
